Airport View

Enter AWOS ICAO identifier for current METAR.

ex. KFNL

KCEC 290356Z AUTO 13004KT 6SM HZ CLR 21/08 A2993 RMK AO2 SLP134 T02110083

29 Sep 2020 04:53

Frequency: 119.925

Phone: 707-465-5458

Other Area AWOS: KBOK - K4S1 - KACV - K3S8

KCEC 290121Z 2901/2924 17006KT 5SM FU HZ SCT030 FM290300 16004KT 3SM FU HZ BKN030 FM290800 15003KT 4SM FU HZ SCT070 FM291200 15003KT 5SM FU HZ BKN050 FM291700 17005KT 3SM BR BKN004 FM292100 19006KT 5SM BR SCT006